sensor_id;sensor_type;location;lat;lon;timestamp;pressure;altitude;pressure_sealevel;temperature
55038;BMP280;40937;53.594;10.034;2023-05-10T00:00:18;100991.69;;;15.58
55038;BMP280;40937;53.594;10.034;2023-05-10T00:02:48;100979.47;;;15.57
55038;BMP280;40937;53.594;10.034;2023-05-10T00:05:19;100978.91;;;15.50
55038;BMP280;40937;53.594;10.034;2023-05-10T00:07:50;100985.53;;;15.47
55038;BMP280;40937;53.594;10.034;2023-05-10T00:10:18;100978.91;;;15.50
55038;BMP280;40937;53.594;10.034;2023-05-10T00:12:46;100973.84;;;15.43
55038;BMP280;40937;53.594;10.034;2023-05-10T00:15:16;100969.56;;;15.42
55038;BMP280;40937;53.594;10.034;2023-05-10T00:17:47;100976.75;;;15.42
55038;BMP280;40937;53.594;10.034;2023-05-10T00:20:15;100970.09;;;15.39
55038;BMP280;40937;53.594;10.034;2023-05-10T00:22:42;100969.78;;;15.30
55038;BMP280;40937;53.594;10.034;2023-05-10T00:25:16;100963.41;;;15.26
55038;BMP280;40937;53.594;10.034;2023-05-10T00:34:32;100962.88;;;15.24
55038;BMP280;40937;53.594;10.034;2023-05-10T00:46:01;100959.13;;;15.25
55038;BMP280;40937;53.594;10.034;2023-05-10T00:48:28;100957.00;;;15.22
55038;BMP280;40937;53.594;10.034;2023-05-10T00:50:56;100955.44;;;15.21
55038;BMP280;40937;53.594;10.034;2023-05-10T00:53:24;100955.69;;;15.20
55038;BMP280;40937;53.594;10.034;2023-05-10T00:55:51;100949.00;;;15.17
55038;BMP280;40937;53.594;10.034;2023-05-10T00:58:18;100953.75;;;15.10
55038;BMP280;40937;53.594;10.034;2023-05-10T01:00:46;100947.06;;;15.02
55038;BMP280;40937;53.594;10.034;2023-05-10T01:03:15;100939.34;;;15.01
55038;BMP280;40937;53.594;10.034;2023-05-10T01:05:43;100937.75;;;15.00
55038;BMP280;40937;53.594;10.034;2023-05-10T01:08:10;100935.34;;;14.93
55038;BMP280;40937;53.594;10.034;2023-05-10T01:10:37;100940.59;;;14.88
55038;BMP280;40937;53.594;10.034;2023-05-10T01:13:05;100940.91;;;14.91
55038;BMP280;40937;53.594;10.034;2023-05-10T01:15:32;100938.22;;;14.86
55038;BMP280;40937;53.594;10.034;2023-05-10T01:18:00;100932.38;;;14.84
55038;BMP280;40937;53.594;10.034;2023-05-10T01:20:35;100933.41;;;14.83
55038;BMP280;40937;53.594;10.034;2023-05-10T01:23:22;100932.03;;;14.76
55038;BMP280;40937;53.594;10.034;2023-05-10T01:26:12;100932.28;;;14.69
55038;BMP280;40937;53.594;10.034;2023-05-10T01:29:02;100934.41;;;14.67
55038;BMP280;40937;53.594;10.034;2023-05-10T01:32:05;100935.69;;;14.64
55038;BMP280;40937;53.594;10.034;2023-05-10T01:34:35;100939.91;;;14.60
55038;BMP280;40937;53.594;10.034;2023-05-10T01:37:10;100934.34;;;14.62
55038;BMP280;40937;53.594;10.034;2023-05-10T01:39:43;100945.03;;;14.67
55038;BMP280;40937;53.594;10.034;2023-05-10T01:42:16;100934.66;;;14.65
55038;BMP280;40937;53.594;10.034;2023-05-10T01:44:50;100932.00;;;14.65
55038;BMP280;40937;53.594;10.034;2023-05-10T01:47:28;100936.47;;;14.60
55038;BMP280;40937;53.594;10.034;2023-05-10T01:49:59;100934.34;;;14.57
55038;BMP280;40937;53.594;10.034;2023-05-10T01:52:32;100929.25;;;14.50
55038;BMP280;40937;53.594;10.034;2023-05-10T01:55:02;100935.28;;;14.45
55038;BMP280;40937;53.594;10.034;2023-05-10T01:57:32;100925.56;;;14.56
55038;BMP280;40937;53.594;10.034;2023-05-10T02:00:02;100925.00;;;14.54
55038;BMP280;40937;53.594;10.034;2023-05-10T02:02:47;100928.13;;;14.46
55038;BMP280;40937;53.594;10.034;2023-05-10T02:05:16;100920.44;;;14.44
55038;BMP280;40937;53.594;10.034;2023-05-10T02:07:44;100922.03;;;14.45
55038;BMP280;40937;53.594;10.034;2023-05-10T02:10:13;100926.75;;;14.38
55038;BMP280;40937;53.594;10.034;2023-05-10T02:12:42;100919.25;;;14.30
55038;BMP280;40937;53.594;10.034;2023-05-10T02:15:11;100919.28;;;14.35
55038;BMP280;40937;53.594;10.034;2023-05-10T02:17:43;100918.16;;;14.26
55038;BMP280;40937;53.594;10.034;2023-05-10T02:20:11;100925.28;;;14.20
55038;BMP280;40937;53.594;10.034;2023-05-10T02:22:40;100919.88;;;14.10
55038;BMP280;40937;53.594;10.034;2023-05-10T02:25:09;100921.78;;;14.15
55038;BMP280;40937;53.594;10.034;2023-05-10T02:27:38;100923.41;;;14.16
55038;BMP280;40937;53.594;10.034;2023-05-10T02:30:09;100925.44;;;14.08
55038;BMP280;40937;53.594;10.034;2023-05-10T02:32:37;100925.41;;;14.03
55038;BMP280;40937;53.594;10.034;2023-05-10T02:35:08;100924.31;;;13.99
55038;BMP280;40937;53.594;10.034;2023-05-10T02:37:37;100920.34;;;14.02
55038;BMP280;40937;53.594;10.034;2023-05-10T02:40:06;100920.09;;;14.03
55038;BMP280;40937;53.594;10.034;2023-05-10T02:42:37;100915.09;;;14.07
55038;BMP280;40937;53.594;10.034;2023-05-10T02:45:11;100918.00;;;14.05
55038;BMP280;40937;53.594;10.034;2023-05-10T02:47:42;100921.41;;;14.01
55038;BMP280;40937;53.594;10.034;2023-05-10T02:50:11;100915.31;;;14.00
55038;BMP280;40937;53.594;10.034;2023-05-10T02:52:40;100910.00;;;14.00
55038;BMP280;40937;53.594;10.034;2023-05-10T02:55:10;100918.38;;;13.92
55038;BMP280;40937;53.594;10.034;2023-05-10T02:57:42;100912.53;;;13.90
55038;BMP280;40937;53.594;10.034;2023-05-10T03:00:11;100911.19;;;13.87
55038;BMP280;40937;53.594;10.034;2023-05-10T03:02:38;100909.38;;;13.93
55038;BMP280;40937;53.594;10.034;2023-05-10T03:05:05;100908.25;;;13.89
55038;BMP280;40937;53.594;10.034;2023-05-10T03:07:35;100908.88;;;13.96
55038;BMP280;40937;53.594;10.034;2023-05-10T03:10:03;100907.88;;;14.02
55038;BMP280;40937;53.594;10.034;2023-05-10T03:12:45;100909.66;;;13.97
55038;BMP280;40937;53.594;10.034;2023-05-10T03:15:19;100915.56;;;13.99
55038;BMP280;40937;53.594;10.034;2023-05-10T03:17:54;100918.47;;;14.02
55038;BMP280;40937;53.594;10.034;2023-05-10T03:20:26;100916.97;;;14.06
55038;BMP280;40937;53.594;10.034;2023-05-10T03:23:02;100908.38;;;13.99
55038;BMP280;40937;53.594;10.034;2023-05-10T03:25:31;100902.47;;;13.92
55038;BMP280;40937;53.594;10.034;2023-05-10T03:28:01;100911.50;;;13.91
55038;BMP280;40937;53.594;10.034;2023-05-10T03:30:29;100907.78;;;13.92
55038;BMP280;40937;53.594;10.034;2023-05-10T03:32:56;100904.09;;;13.93
55038;BMP280;40937;53.594;10.034;2023-05-10T03:35:24;100900.88;;;13.91
55038;BMP280;40937;53.594;10.034;2023-05-10T03:37:51;100908.25;;;13.89
55038;BMP280;40937;53.594;10.034;2023-05-10T03:40:21;100908.53;;;13.87
55038;BMP280;40937;53.594;10.034;2023-05-10T03:42:48;100905.09;;;13.87
55038;BMP280;40937;53.594;10.034;2023-05-10T03:45:16;100909.78;;;13.80
55038;BMP280;40937;53.594;10.034;2023-05-10T03:47:44;100908.97;;;13.79
55038;BMP280;40937;53.594;10.034;2023-05-10T03:50:12;100902.41;;;13.82
55038;BMP280;40937;53.594;10.034;2023-05-10T03:52:41;100902.94;;;13.84
55038;BMP280;40937;53.594;10.034;2023-05-10T03:55:11;100907.34;;;13.73
55038;BMP280;40937;53.594;10.034;2023-05-10T03:57:40;100914.81;;;13.76
55038;BMP280;40937;53.594;10.034;2023-05-10T04:00:08;100906.28;;;13.74
55038;BMP280;40937;53.594;10.034;2023-05-10T04:02:42;100904.44;;;13.75
55038;BMP280;40937;53.594;10.034;2023-05-10T04:05:15;100912.38;;;13.75
55038;BMP280;40937;53.594;10.034;2023-05-10T04:07:42;100909.22;;;13.78
55038;BMP280;40937;53.594;10.034;2023-05-10T04:10:10;100912.16;;;13.76
55038;BMP280;40937;53.594;10.034;2023-05-10T04:12:39;100904.91;;;13.71
55038;BMP280;40937;53.594;10.034;2023-05-10T04:15:07;100908.06;;;13.63
55038;BMP280;40937;53.594;10.034;2023-05-10T04:17:35;100908.56;;;13.65
55038;BMP280;40937;53.594;10.034;2023-05-10T04:20:04;100905.41;;;13.63
55038;BMP280;40937;53.594;10.034;2023-05-10T04:22:32;100910.75;;;13.68
55038;BMP280;40937;53.594;10.034;2023-05-10T04:24:59;100912.34;;;13.69
55038;BMP280;40937;53.594;10.034;2023-05-10T04:27:26;100908.50;;;13.55
55038;BMP280;40937;53.594;10.034;2023-05-10T04:29:55;100911.00;;;13.45
55038;BMP280;40937;53.594;10.034;2023-05-10T04:32:22;100910.75;;;13.46
55038;BMP280;40937;53.594;10.034;2023-05-10T04:34:49;100904.66;;;13.46
55038;BMP280;40937;53.594;10.034;2023-05-10T04:37:17;100907.97;;;13.58
55038;BMP280;40937;53.594;10.034;2023-05-10T04:39:47;100908.78;;;13.59
55038;BMP280;40937;53.594;10.034;2023-05-10T04:42:15;100909.53;;;13.54
55038;BMP280;40937;53.594;10.034;2023-05-10T04:44:42;100906.88;;;13.54
55038;BMP280;40937;53.594;10.034;2023-05-10T04:47:11;100913.28;;;13.58
55038;BMP280;40937;53.594;10.034;2023-05-10T04:49:39;100911.47;;;13.64
55038;BMP280;40937;53.594;10.034;2023-05-10T04:52:06;100908.56;;;13.65
55038;BMP280;40937;53.594;10.034;2023-05-10T04:54:35;100907.56;;;13.71
55038;BMP280;40937;53.594;10.034;2023-05-10T04:57:02;100912.88;;;13.71
55038;BMP280;40937;53.594;10.034;2023-05-10T04:59:30;100916.69;;;13.81
55038;BMP280;40937;53.594;10.034;2023-05-10T05:01:57;100916.66;;;13.76
55038;BMP280;40937;53.594;10.034;2023-05-10T05:04:25;100914.00;;;13.76
55038;BMP280;40937;53.594;10.034;2023-05-10T05:06:52;100910.22;;;13.71
55038;BMP280;40937;53.594;10.034;2023-05-10T05:09:19;100908.72;;;13.76
55038;BMP280;40937;53.594;10.034;2023-05-10T05:11:47;100915.09;;;13.80
55038;BMP280;40937;53.594;10.034;2023-05-10T05:14:14;100913.00;;;13.82
55038;BMP280;40937;53.594;10.034;2023-05-10T05:16:41;100917.72;;;13.80
55038;BMP280;40937;53.594;10.034;2023-05-10T05:19:08;100926.59;;;13.90
55038;BMP280;40937;53.594;10.034;2023-05-10T05:21:37;100921.00;;;13.87
55038;BMP280;40937;53.594;10.034;2023-05-10T05:24:05;100917.31;;;13.88
55038;BMP280;40937;53.594;10.034;2023-05-10T05:26:33;100914.56;;;13.83
55038;BMP280;40937;53.594;10.034;2023-05-10T05:29:00;100919.88;;;13.83
55038;BMP280;40937;53.594;10.034;2023-05-10T05:31:27;100923.63;;;13.82
55038;BMP280;40937;53.594;10.034;2023-05-10T05:33:55;100921.00;;;13.87
55038;BMP280;40937;53.594;10.034;2023-05-10T05:36:22;100927.97;;;13.93
55038;BMP280;40937;53.594;10.034;2023-05-10T05:38:50;100924.91;;;14.06
55038;BMP280;40937;53.594;10.034;2023-05-10T05:41:18;100922.78;;;14.08
55038;BMP280;40937;53.594;10.034;2023-05-10T05:43:45;100926.50;;;14.07
55038;BMP280;40937;53.594;10.034;2023-05-10T05:46:13;100917.00;;;14.11
55038;BMP280;40937;53.594;10.034;2023-05-10T05:48:40;100930.53;;;14.15
55038;BMP280;40937;53.594;10.034;2023-05-10T05:51:07;100927.09;;;14.15
55038;BMP280;40937;53.594;10.034;2023-05-10T05:53:35;100928.69;;;14.16
55038;BMP280;40937;53.594;10.034;2023-05-10T05:56:04;100919.97;;;14.20
55038;BMP280;40937;53.594;10.034;2023-05-10T05:58:31;100925.63;;;14.34
55038;BMP280;40937;53.594;10.034;2023-05-10T06:00:59;100914.00;;;14.40
55038;BMP280;40937;53.594;10.034;2023-05-10T06:03:26;100921.53;;;14.48
55038;BMP280;40937;53.594;10.034;2023-05-10T06:05:53;100921.56;;;14.54
55038;BMP280;40937;53.594;10.034;2023-05-10T06:08:20;100920.28;;;14.61
55038;BMP280;40937;53.594;10.034;2023-05-10T06:10:50;100919.53;;;14.71
55038;BMP280;40937;53.594;10.034;2023-05-10T06:13:19;100919.56;;;14.76
55038;BMP280;40937;53.594;10.034;2023-05-10T06:15:46;100918.28;;;14.84
55038;BMP280;40937;53.594;10.034;2023-05-10T06:18:13;100924.97;;;14.91
55038;BMP280;40937;53.594;10.034;2023-05-10T06:20:41;100926.59;;;14.92
55038;BMP280;40937;53.594;10.034;2023-05-10T06:23:08;100924.44;;;14.95
55038;BMP280;40937;53.594;10.034;2023-05-10T06:25:36;100927.69;;;15.07
55038;BMP280;40937;53.594;10.034;2023-05-10T06:28:03;100932.78;;;15.13
55038;BMP280;40937;53.594;10.034;2023-05-10T06:30:32;100926.94;;;15.17
55038;BMP280;40937;53.594;10.034;2023-05-10T06:32:59;100933.34;;;15.21
55038;BMP280;40937;53.594;10.034;2023-05-10T06:35:28;100938.13;;;15.19
55038;BMP280;40937;53.594;10.034;2023-05-10T06:37:55;100940.53;;;15.15
55038;BMP280;40937;53.594;10.034;2023-05-10T06:40:22;100939.75;;;15.25
55038;BMP280;40937;53.594;10.034;2023-05-10T06:42:50;100945.06;;;15.25
55038;BMP280;40937;53.594;10.034;2023-05-10T06:45:17;100944.81;;;15.21
55038;BMP280;40937;53.594;10.034;2023-05-10T06:47:48;100937.34;;;15.23
55038;BMP280;40937;53.594;10.034;2023-05-10T06:50:22;100942.16;;;15.26
55038;BMP280;40937;53.594;10.034;2023-05-10T06:56:46;100952.78;;;15.26
55038;BMP280;40937;53.594;10.034;2023-05-10T07:00:00;100937.06;;;15.20
55038;BMP280;40937;53.594;10.034;2023-05-10T07:02:52;100947.72;;;15.30
55038;BMP280;40937;53.594;10.034;2023-05-10T07:06:40;100946.44;;;15.38
55038;BMP280;40937;53.594;10.034;2023-05-10T07:13:16;100949.13;;;15.53
55038;BMP280;40937;53.594;10.034;2023-05-10T07:16:04;100944.91;;;15.57
55038;BMP280;40937;53.594;10.034;2023-05-10T07:19:14;100946.47;;;15.53
55038;BMP280;40937;53.594;10.034;2023-05-10T07:29:02;100949.72;;;15.65
55038;BMP280;40937;53.594;10.034;2023-05-10T07:33:01;100953.97;;;15.82
55038;BMP280;40937;53.594;10.034;2023-05-10T07:43:05;100958.50;;;15.81
55038;BMP280;40937;53.594;10.034;2023-05-10T07:50:17;100957.75;;;16.01
55038;BMP280;40937;53.594;10.034;2023-05-10T07:52:44;100948.19;;;16.05
55038;BMP280;40937;53.594;10.034;2023-05-10T07:55:12;100947.63;;;16.03
55038;BMP280;40937;53.594;10.034;2023-05-10T07:57:42;100949.75;;;16.06
55038;BMP280;40937;53.594;10.034;2023-05-10T08:00:12;100952.69;;;16.15
55038;BMP280;40937;53.594;10.034;2023-05-10T08:02:40;100957.22;;;16.14
55038;BMP280;40937;53.594;10.034;2023-05-10T08:05:08;100957.47;;;16.18
55038;BMP280;40937;53.594;10.034;2023-05-10T08:07:35;100964.69;;;16.23
55038;BMP280;40937;53.594;10.034;2023-05-10T08:10:03;100958.31;;;16.29
55038;BMP280;40937;53.594;10.034;2023-05-10T08:12:30;100968.66;;;16.30
55038;BMP280;40937;53.594;10.034;2023-05-10T08:14:58;100971.06;;;16.32
55038;BMP280;40937;53.594;10.034;2023-05-10T08:17:26;100979.59;;;16.34
55038;BMP280;40937;53.594;10.034;2023-05-10T08:19:53;100977.44;;;16.41
55038;BMP280;40937;53.594;10.034;2023-05-10T08:22:23;100991.28;;;16.43
55038;BMP280;40937;53.594;10.034;2023-05-10T08:24:50;100984.91;;;16.44
55038;BMP280;40937;53.594;10.034;2023-05-10T08:27:17;100987.03;;;16.47
55038;BMP280;40937;53.594;10.034;2023-05-10T08:29:44;100983.56;;;16.42
55038;BMP280;40937;53.594;10.034;2023-05-10T08:32:11;100985.97;;;16.43
55038;BMP280;40937;53.594;10.034;2023-05-10T08:34:40;100987.81;;;16.48
55038;BMP280;40937;53.594;10.034;2023-05-10T08:37:07;100983.03;;;16.50
55038;BMP280;40937;53.594;10.034;2023-05-10T08:39:36;100989.19;;;16.50
55038;BMP280;40937;53.594;10.034;2023-05-10T08:42:04;100981.94;;;16.56
55038;BMP280;40937;53.594;10.034;2023-05-10T08:44:34;100989.16;;;16.55
55038;BMP280;40937;53.594;10.034;2023-05-10T08:47:04;100992.88;;;16.54
55038;BMP280;40937;53.594;10.034;2023-05-10T08:49:32;100985.97;;;16.53
55038;BMP280;40937;53.594;10.034;2023-05-10T08:52:03;100990.22;;;16.60
55038;BMP280;40937;53.594;10.034;2023-05-10T08:54:31;100991.00;;;16.65
55038;BMP280;40937;53.594;10.034;2023-05-10T08:56:59;100993.94;;;16.69
55038;BMP280;40937;53.594;10.034;2023-05-10T08:59:27;100999.28;;;16.69
55038;BMP280;40937;53.594;10.034;2023-05-10T09:01:57;101009.38;;;16.72
55038;BMP280;40937;53.594;10.034;2023-05-10T09:04:24;101006.44;;;16.73
55038;BMP280;40937;53.594;10.034;2023-05-10T09:06:52;101005.94;;;16.76
55038;BMP280;40937;53.594;10.034;2023-05-10T09:09:21;101001.63;;;16.81
55038;BMP280;40937;53.594;10.034;2023-05-10T09:11:49;101014.69;;;16.87
55038;BMP280;40937;53.594;10.034;2023-05-10T09:14:18;101020.00;;;16.87
55038;BMP280;40937;53.594;10.034;2023-05-10T09:16:45;101013.59;;;16.88
55038;BMP280;40937;53.594;10.034;2023-05-10T09:19:16;101019.44;;;16.90
55038;BMP280;40937;53.594;10.034;2023-05-10T09:21:44;101020.00;;;16.92
55038;BMP280;40937;53.594;10.034;2023-05-10T09:24:11;101019.47;;;16.95
55038;BMP280;40937;53.594;10.034;2023-05-10T09:26:47;101022.66;;;16.97
55038;BMP280;40937;53.594;10.034;2023-05-10T09:29:15;101026.88;;;17.04
55038;BMP280;40937;53.594;10.034;2023-05-10T09:31:47;101026.84;;;17.09
55038;BMP280;40937;53.594;10.034;2023-05-10T09:34:17;101031.13;;;17.10
55038;BMP280;40937;53.594;10.034;2023-05-10T09:36:52;101030.88;;;17.11
55038;BMP280;40937;53.594;10.034;2023-05-10T09:39:20;101040.19;;;17.14
55038;BMP280;40937;53.594;10.034;2023-05-10T09:41:49;101046.28;;;17.19
55038;BMP280;40937;53.594;10.034;2023-05-10T09:44:17;101051.38;;;17.16
55038;BMP280;40937;53.594;10.034;2023-05-10T09:46:49;101049.25;;;17.18
55038;BMP280;40937;53.594;10.034;2023-05-10T09:49:17;101047.66;;;17.17
55038;BMP280;40937;53.594;10.034;2023-05-10T09:51:44;101050.34;;;17.17
55038;BMP280;40937;53.594;10.034;2023-05-10T09:54:13;101050.59;;;17.15
55038;BMP280;40937;53.594;10.034;2023-05-10T09:56:42;101054.03;;;17.21
55038;BMP280;40937;53.594;10.034;2023-05-10T09:59:11;101056.72;;;17.16
55038;BMP280;40937;53.594;10.034;2023-05-10T10:01:49;101064.72;;;17.16
55038;BMP280;40937;53.594;10.034;2023-05-10T10:04:17;101073.28;;;17.13
55038;BMP280;40937;53.594;10.034;2023-05-10T10:06:44;101079.13;;;17.10
55038;BMP280;40937;53.594;10.034;2023-05-10T10:09:14;101087.69;;;17.02
55038;BMP280;40937;53.594;10.034;2023-05-10T10:11:41;101079.94;;;16.90
55038;BMP280;40937;53.594;10.034;2023-05-10T10:14:08;101087.16;;;16.79
55038;BMP280;40937;53.594;10.034;2023-05-10T10:16:37;101083.44;;;16.75
55038;BMP280;40937;53.594;10.034;2023-05-10T10:19:06;101083.97;;;16.72
55038;BMP280;40937;53.594;10.034;2023-05-10T10:21:33;101094.59;;;16.62
55038;BMP280;40937;53.594;10.034;2023-05-10T10:24:01;101099.66;;;16.53
55038;BMP280;40937;53.594;10.034;2023-05-10T10:26:33;101101.53;;;16.52
55038;BMP280;40937;53.594;10.034;2023-05-10T10:29:12;101105.56;;;16.55
55038;BMP280;40937;53.594;10.034;2023-05-10T10:31:47;101104.75;;;16.44
55038;BMP280;40937;53.594;10.034;2023-05-10T10:34:25;101102.34;;;16.43
55038;BMP280;40937;53.594;10.034;2023-05-10T10:36:54;101111.63;;;16.35
55038;BMP280;40937;53.594;10.034;2023-05-10T10:39:23;101108.94;;;16.30
55038;BMP280;40937;53.594;10.034;2023-05-10T10:41:52;101120.13;;;16.17
55038;BMP280;40937;53.594;10.034;2023-05-10T10:44:33;101124.41;;;16.18
55038;BMP280;40937;53.594;10.034;2023-05-10T10:47:07;101126.25;;;16.17
55038;BMP280;40937;53.594;10.034;2023-05-10T10:49:48;101132.88;;;16.14
55038;BMP280;40937;53.594;10.034;2023-05-10T10:52:25;101132.84;;;16.04
55038;BMP280;40937;53.594;10.034;2023-05-10T10:54:58;101127.28;;;16.01
55038;BMP280;40937;53.594;10.034;2023-05-10T10:57:26;101118.19;;;16.02
55038;BMP280;40937;53.594;10.034;2023-05-10T11:00:24;101124.28;;;15.97
55038;BMP280;40937;53.594;10.034;2023-05-10T11:02:54;101129.66;;;16.02
55038;BMP280;40937;53.594;10.034;2023-05-10T11:05:41;101129.34;;;15.99
55038;BMP280;40937;53.594;10.034;2023-05-10T11:08:11;101137.09;;;16.00
55038;BMP280;40937;53.594;10.034;2023-05-10T11:10:50;101137.34;;;15.99
55038;BMP280;40937;53.594;10.034;2023-05-10T11:13:28;101142.13;;;15.97
55038;BMP280;40937;53.594;10.034;2023-05-10T11:16:09;101140.00;;;15.93
55038;BMP280;40937;53.594;10.034;2023-05-10T11:18:38;101146.59;;;15.86
55038;BMP280;40937;53.594;10.034;2023-05-10T11:21:08;101148.22;;;15.87
55038;BMP280;40937;53.594;10.034;2023-05-10T11:23:48;101149.53;;;15.84
55038;BMP280;40937;53.594;10.034;2023-05-10T11:26:16;101152.94;;;15.80
55038;BMP280;40937;53.594;10.034;2023-05-10T11:28:45;101153.47;;;15.77
55038;BMP280;40937;53.594;10.034;2023-05-10T11:31:13;101153.28;;;15.88
55038;BMP280;40937;53.594;10.034;2023-05-10T11:33:46;101154.88;;;15.89
55038;BMP280;40937;53.594;10.034;2023-05-10T11:36:15;101155.13;;;15.83
55038;BMP280;40937;53.594;10.034;2023-05-10T11:38:44;101160.69;;;15.81
55038;BMP280;40937;53.594;10.034;2023-05-10T11:41:12;101159.88;;;15.81
55038;BMP280;40937;53.594;10.034;2023-05-10T11:43:42;101158.28;;;15.80
55038;BMP280;40937;53.594;10.034;2023-05-10T11:46:11;101157.78;;;15.83
55038;BMP280;40937;53.594;10.034;2023-05-10T11:48:39;101165.22;;;15.81
55038;BMP280;40937;53.594;10.034;2023-05-10T11:51:08;101164.94;;;15.77
55038;BMP280;40937;53.594;10.034;2023-05-10T11:53:36;101170.25;;;15.77
55038;BMP280;40937;53.594;10.034;2023-05-10T11:56:04;101174.22;;;15.74
55038;BMP280;40937;53.594;10.034;2023-05-10T11:58:32;101181.44;;;15.79
55038;BMP280;40937;53.594;10.034;2023-05-10T12:01:00;101181.69;;;15.78
55038;BMP280;40937;53.594;10.034;2023-05-10T12:03:28;101183.28;;;15.79
55038;BMP280;40937;53.594;10.034;2023-05-10T12:05:56;101176.88;;;15.74
55038;BMP280;40937;53.594;10.034;2023-05-10T12:08:26;101183.81;;;15.76
55038;BMP280;40937;53.594;10.034;2023-05-10T12:11:06;101187.03;;;15.78
55038;BMP280;40937;53.594;10.034;2023-05-10T12:13:37;101187.50;;;15.74
55038;BMP280;40937;53.594;10.034;2023-05-10T12:16:13;101193.13;;;15.78
55038;BMP280;40937;53.594;10.034;2023-05-10T12:18:41;101191.78;;;15.76
55038;BMP280;40937;53.594;10.034;2023-05-10T12:21:09;101194.44;;;15.76
55038;BMP280;40937;53.594;10.034;2023-05-10T12:23:39;101200.84;;;15.80
55038;BMP280;40937;53.594;10.034;2023-05-10T12:26:07;101198.72;;;15.82
55038;BMP280;40937;53.594;10.034;2023-05-10T12:28:35;101200.88;;;15.85
55038;BMP280;40937;53.594;10.034;2023-05-10T12:31:03;101200.34;;;15.83
55038;BMP280;40937;53.594;10.034;2023-05-10T12:33:35;101200.09;;;15.84
55038;BMP280;40937;53.594;10.034;2023-05-10T12:36:02;101204.09;;;15.87
55038;BMP280;40937;53.594;10.034;2023-05-10T12:38:33;101201.44;;;15.92
55038;BMP280;40937;53.594;10.034;2023-05-10T12:41:03;101202.47;;;15.91
55038;BMP280;40937;53.594;10.034;2023-05-10T12:43:32;101209.44;;;15.92
55038;BMP280;40937;53.594;10.034;2023-05-10T12:46:04;101208.94;;;15.95
55038;BMP280;40937;53.594;10.034;2023-05-10T12:48:32;101215.03;;;15.95
55038;BMP280;40937;53.594;10.034;2023-05-10T12:51:00;101214.25;;;16.00
55038;BMP280;40937;53.594;10.034;2023-05-10T12:53:27;101222.53;;;16.04
55038;BMP280;40937;53.594;10.034;2023-05-10T12:55:55;101211.13;;;16.13
55038;BMP280;40937;53.594;10.034;2023-05-10T12:58:24;101213.53;;;16.15
55038;BMP280;40937;53.594;10.034;2023-05-10T13:00:54;101206.91;;;16.18
55038;BMP280;40937;53.594;10.034;2023-05-10T13:03:23;101214.38;;;16.21
55038;BMP280;40937;53.594;10.034;2023-05-10T13:05:50;101206.38;;;16.21
55038;BMP280;40937;53.594;10.034;2023-05-10T13:08:20;101206.66;;;16.24
55038;BMP280;40937;53.594;10.034;2023-05-10T13:10:52;101212.25;;;16.33
55038;BMP280;40937;53.594;10.034;2023-05-10T13:13:20;101219.22;;;16.39
55038;BMP280;40937;53.594;10.034;2023-05-10T13:15:49;101216.59;;;16.44
55038;BMP280;40937;53.594;10.034;2023-05-10T13:18:19;101222.94;;;16.38
55038;BMP280;40937;53.594;10.034;2023-05-10T13:20:47;101215.75;;;16.28
55038;BMP280;40937;53.594;10.034;2023-05-10T13:23:15;101216.00;;;16.32
55038;BMP280;40937;53.594;10.034;2023-05-10T13:25:42;101213.59;;;16.41
55038;BMP280;40937;53.594;10.034;2023-05-10T13:28:12;101217.91;;;16.47
55038;BMP280;40937;53.594;10.034;2023-05-10T13:30:39;101220.34;;;16.53
55038;BMP280;40937;53.594;10.034;2023-05-10T13:33:08;101223.53;;;16.55
55038;BMP280;40937;53.594;10.034;2023-05-10T13:35:36;101214.47;;;16.62
55038;BMP280;40937;53.594;10.034;2023-05-10T13:38:03;101220.38;;;16.69
55038;BMP280;40937;53.594;10.034;2023-05-10T13:40:33;101215.59;;;16.71
55038;BMP280;40937;53.594;10.034;2023-05-10T13:43:01;101216.66;;;16.75
55038;BMP280;40937;53.594;10.034;2023-05-10T13:45:29;101217.72;;;16.79
55038;BMP280;40937;53.594;10.034;2023-05-10T13:47:58;101219.56;;;16.84
55038;BMP280;40937;53.594;10.034;2023-05-10T13:53:11;101209.97;;;16.77
55038;BMP280;40937;53.594;10.034;2023-05-10T14:12:58;101218.25;;;16.96
55038;BMP280;40937;53.594;10.034;2023-05-10T14:17:09;101223.59;;;16.96
55038;BMP280;40937;53.594;10.034;2023-05-10T14:23:36;101228.94;;;16.96
55038;BMP280;40937;53.594;10.034;2023-05-10T14:34:19;101219.91;;;17.08
55038;BMP280;40937;53.594;10.034;2023-05-10T14:41:02;101221.44;;;17.09
55038;BMP280;40937;53.594;10.034;2023-05-10T14:43:53;101219.88;;;17.13
55038;BMP280;40937;53.594;10.034;2023-05-10T14:47:25;101218.81;;;17.14
55038;BMP280;40937;53.594;10.034;2023-05-10T14:50:27;101222.81;;;17.16
55038;BMP280;40937;53.594;10.034;2023-05-10T14:53:37;101227.09;;;17.12
55038;BMP280;40937;53.594;10.034;2023-05-10T14:56:35;101233.22;;;17.13
55038;BMP280;40937;53.594;10.034;2023-05-10T14:59:14;101234.81;;;17.14
55038;BMP280;40937;53.594;10.034;2023-05-10T15:02:00;101224.16;;;17.14
55038;BMP280;40937;53.594;10.034;2023-05-10T15:04:54;101218.00;;;17.13
55038;BMP280;40937;53.594;10.034;2023-05-10T15:07:40;101219.59;;;17.14
55038;BMP280;40937;53.594;10.034;2023-05-10T15:10:20;101223.88;;;17.21
55038;BMP280;40937;53.594;10.034;2023-05-10T15:13:26;101225.22;;;17.18
55038;BMP280;40937;53.594;10.034;2023-05-10T15:16:07;101227.59;;;17.19
55038;BMP280;40937;53.594;10.034;2023-05-10T15:18:47;101226.53;;;17.26
55038;BMP280;40937;53.594;10.034;2023-05-10T15:21:37;101240.13;;;17.24
55038;BMP280;40937;53.594;10.034;2023-05-10T15:24:15;101229.22;;;17.21
55038;BMP280;40937;53.594;10.034;2023-05-10T15:26:55;101236.94;;;17.27
55038;BMP280;40937;53.594;10.034;2023-05-10T15:29:50;101239.59;;;17.27